createdAt,value
2023-09-16T00:02:03.798Z,22.40
2023-09-16T00:04:30.439Z,22.40
2023-09-16T00:06:57.025Z,22.40
2023-09-16T00:09:23.575Z,22.40
2023-09-16T00:11:50.121Z,22.40
2023-09-16T00:14:16.644Z,22.40
2023-09-16T00:16:43.246Z,22.40
2023-09-16T00:19:09.907Z,22.40
2023-09-16T00:21:36.558Z,22.40
2023-09-16T00:24:03.242Z,22.40
2023-09-16T00:26:29.780Z,22.40
2023-09-16T00:28:56.300Z,22.40
2023-09-16T00:31:22.933Z,22.40
2023-09-16T00:33:49.529Z,22.40
2023-09-16T00:36:16.070Z,22.40
2023-09-16T00:38:44.413Z,22.40
2023-09-16T00:41:10.948Z,22.40
2023-09-16T00:43:37.479Z,22.40
2023-09-16T00:46:04.021Z,22.40
2023-09-16T00:48:30.584Z,22.40
2023-09-16T00:50:57.099Z,22.30
2023-09-16T00:53:23.609Z,22.40
2023-09-16T00:55:50.135Z,22.30
2023-09-16T00:58:16.643Z,22.30
2023-09-16T01:00:43.330Z,22.30
2023-09-16T01:03:09.976Z,22.30
2023-09-16T01:05:36.634Z,22.30
2023-09-16T01:08:03.215Z,22.40
2023-09-16T01:10:29.726Z,22.30
2023-09-16T01:12:56.365Z,22.40
2023-09-16T01:15:22.976Z,22.30
2023-09-16T01:17:49.591Z,22.30
2023-09-16T01:20:16.140Z,22.30
2023-09-16T01:22:42.762Z,22.30
2023-09-16T01:25:09.312Z,22.30
2023-09-16T01:27:35.892Z,22.30
2023-09-16T01:30:02.431Z,22.30
2023-09-16T01:32:28.963Z,22.30
2023-09-16T01:34:55.542Z,22.30
2023-09-16T01:37:22.149Z,22.30
2023-09-16T01:39:48.742Z,22.30
2023-09-16T01:42:15.335Z,22.30
2023-09-16T01:44:41.855Z,22.30
2023-09-16T01:47:08.395Z,22.30
2023-09-16T01:49:35.011Z,22.30
2023-09-16T01:52:01.644Z,22.30
2023-09-16T01:54:28.216Z,22.30
2023-09-16T01:56:54.726Z,22.30
2023-09-16T01:59:21.251Z,22.30
2023-09-16T02:01:47.934Z,22.30
2023-09-16T02:04:14.493Z,22.30
2023-09-16T02:06:41.027Z,22.30
2023-09-16T02:09:07.550Z,22.30
2023-09-16T02:11:34.095Z,22.30
2023-09-16T02:14:00.612Z,22.30
2023-09-16T02:16:27.198Z,22.30
2023-09-16T02:18:53.865Z,22.30
2023-09-16T02:21:20.412Z,22.30
2023-09-16T02:23:46.929Z,22.30
2023-09-16T02:26:13.460Z,22.30
2023-09-16T02:28:40.004Z,22.30
2023-09-16T02:31:06.602Z,22.30
2023-09-16T02:33:33.260Z,22.30
2023-09-16T02:35:59.924Z,22.30
2023-09-16T02:38:26.458Z,22.30
2023-09-16T02:40:52.991Z,22.30
2023-09-16T02:43:19.536Z,22.30
2023-09-16T02:45:46.119Z,22.30
2023-09-16T02:48:12.716Z,22.30
2023-09-16T02:50:39.362Z,22.30
2023-09-16T02:53:05.943Z,22.30
2023-09-16T02:55:32.458Z,22.30
2023-09-16T02:57:59.003Z,22.30
2023-09-16T03:00:25.554Z,22.30
2023-09-16T03:02:52.147Z,22.30
2023-09-16T03:05:18.741Z,22.20
2023-09-16T03:07:45.510Z,22.30
2023-09-16T03:10:12.051Z,22.30
2023-09-16T03:12:38.659Z,22.30
2023-09-16T03:15:05.206Z,22.30
2023-09-16T03:17:31.770Z,22.20
2023-09-16T03:19:58.339Z,22.30
2023-09-16T03:22:24.860Z,22.20
2023-09-16T03:24:51.394Z,22.20
2023-09-16T03:27:17.965Z,22.30
2023-09-16T03:29:44.597Z,22.20
2023-09-16T03:32:11.107Z,22.30
2023-09-16T03:34:37.605Z,22.30
2023-09-16T03:37:04.433Z,22.20
2023-09-16T03:39:30.984Z,22.20
2023-09-16T03:41:57.508Z,22.30
2023-09-16T03:44:24.047Z,22.20
2023-09-16T03:46:50.605Z,22.20
2023-09-16T03:49:17.175Z,22.20
2023-09-16T03:51:43.866Z,22.20
2023-09-16T03:54:10.464Z,22.20
2023-09-16T03:56:36.992Z,22.20
2023-09-16T03:59:03.537Z,22.20
2023-09-16T04:01:30.130Z,22.20
2023-09-16T04:03:56.822Z,22.20
2023-09-16T04:06:23.441Z,22.20
2023-09-16T04:08:49.972Z,22.20
2023-09-16T04:11:16.489Z,22.20
2023-09-16T04:13:43.051Z,22.20
2023-09-16T04:16:09.603Z,22.20
2023-09-16T04:18:36.316Z,22.20
2023-09-16T04:21:02.865Z,22.20
2023-09-16T04:23:29.393Z,22.20
2023-09-16T04:25:55.906Z,22.20
2023-09-16T04:28:22.454Z,22.20
2023-09-16T04:30:49.109Z,22.20
2023-09-16T04:33:15.686Z,22.20
2023-09-16T04:35:42.222Z,22.20
2023-09-16T04:38:08.746Z,22.20
2023-09-16T04:40:35.273Z,22.20
2023-09-16T04:43:01.860Z,22.20
2023-09-16T04:45:28.407Z,22.20
2023-09-16T04:47:54.957Z,22.20
2023-09-16T04:50:21.509Z,22.20
2023-09-16T04:52:48.040Z,22.20
2023-09-16T04:55:14.683Z,22.20
2023-09-16T04:57:41.269Z,22.20
2023-09-16T05:00:07.897Z,22.20
2023-09-16T05:02:34.481Z,22.20
2023-09-16T05:05:02.693Z,22.20
2023-09-16T05:07:29.266Z,22.20
2023-09-16T05:09:55.875Z,22.20
2023-09-16T05:12:22.416Z,22.10
2023-09-16T05:14:50.006Z,22.20
2023-09-16T05:17:16.497Z,22.20
2023-09-16T05:19:43.042Z,22.20
2023-09-16T05:22:09.595Z,22.20
2023-09-16T05:24:36.211Z,22.10
2023-09-16T05:27:02.776Z,22.10
2023-09-16T05:29:29.351Z,22.10
2023-09-16T05:31:55.918Z,22.20
2023-09-16T05:34:22.458Z,22.10
2023-09-16T05:36:48.999Z,22.10
2023-09-16T05:39:15.526Z,22.10
2023-09-16T05:41:42.033Z,22.10
2023-09-16T05:44:08.866Z,22.10
2023-09-16T05:46:35.573Z,22.10
2023-09-16T05:49:02.194Z,22.20
2023-09-16T05:51:28.728Z,22.10
2023-09-16T05:53:55.242Z,22.10
2023-09-16T05:56:21.770Z,22.10
2023-09-16T05:58:48.479Z,22.10
2023-09-16T06:01:15.384Z,22.10
2023-09-16T06:03:42.042Z,22.10
2023-09-16T06:06:08.615Z,22.10
2023-09-16T06:08:35.145Z,22.10
2023-09-16T06:11:01.650Z,22.10
2023-09-16T06:13:28.177Z,22.20
2023-09-16T06:15:54.816Z,22.10
2023-09-16T06:18:21.565Z,22.10
2023-09-16T06:20:48.171Z,22.10
2023-09-16T06:23:14.692Z,22.10
2023-09-16T06:25:41.214Z,22.10
2023-09-16T06:28:07.827Z,22.10
2023-09-16T06:30:34.397Z,22.10
2023-09-16T06:33:00.987Z,22.10
2023-09-16T06:35:27.536Z,22.10
2023-09-16T06:37:54.082Z,22.10
2023-09-16T06:40:20.619Z,22.10
2023-09-16T06:42:47.217Z,22.10
2023-09-16T06:45:13.811Z,22.10
2023-09-16T06:47:40.341Z,22.10
2023-09-16T06:50:06.894Z,22.10
2023-09-16T06:52:33.390Z,22.10
2023-09-16T06:54:59.959Z,22.10
2023-09-16T06:57:26.478Z,22.10
2023-09-16T06:59:53.005Z,22.10
2023-09-16T07:02:19.514Z,22.10
2023-09-16T07:04:46.045Z,22.10
2023-09-16T07:07:12.618Z,22.10
2023-09-16T07:09:39.221Z,22.10
2023-09-16T07:12:05.787Z,22.20
2023-09-16T07:14:32.310Z,22.20
2023-09-16T07:16:58.889Z,22.20
2023-09-16T07:19:25.556Z,22.20
2023-09-16T07:21:52.193Z,22.10
2023-09-16T07:24:18.734Z,22.20
2023-09-16T07:26:45.301Z,22.20
2023-09-16T07:29:11.877Z,22.20
2023-09-16T07:31:38.426Z,22.10
2023-09-16T07:34:05.006Z,22.10
2023-09-16T07:36:31.585Z,22.10
2023-09-16T07:38:58.101Z,22.00
2023-09-16T07:41:24.615Z,21.90
2023-09-16T07:43:51.129Z,21.90
2023-09-16T07:46:17.695Z,21.90
2023-09-16T07:48:44.347Z,22.00
2023-09-16T07:51:14.834Z,22.00
2023-09-16T07:53:41.348Z,22.00
2023-09-16T07:56:07.872Z,22.00
2023-09-16T07:58:34.362Z,21.90
2023-09-16T08:01:00.929Z,22.00
2023-09-16T08:03:27.602Z,22.00
2023-09-16T08:05:54.185Z,22.00
2023-09-16T08:08:20.723Z,22.10
2023-09-16T08:10:47.241Z,22.10
2023-09-16T08:13:13.793Z,22.10
2023-09-16T08:15:40.406Z,22.10
2023-09-16T08:18:07.047Z,22.10
2023-09-16T08:20:33.591Z,22.10
2023-09-16T08:23:00.135Z,22.10
2023-09-16T08:25:26.692Z,22.10
2023-09-16T08:27:53.319Z,22.10
2023-09-16T08:30:19.857Z,22.10
2023-09-16T08:32:46.409Z,22.10
2023-09-16T08:35:12.971Z,22.10
2023-09-16T08:37:39.514Z,22.10
2023-09-16T08:40:09.101Z,22.10
2023-09-16T08:42:38.872Z,22.10
2023-09-16T08:45:05.397Z,22.20
2023-09-16T08:56:08.929Z,22.20
2023-09-16T09:07:07.008Z,22.20
2023-09-16T09:09:33.541Z,22.10
2023-09-16T09:12:00.089Z,22.20
2023-09-16T09:14:26.613Z,22.10
2023-09-16T09:16:53.189Z,22.10
2023-09-16T09:19:19.732Z,22.20
2023-09-16T09:21:46.344Z,22.20
2023-09-16T09:24:12.905Z,22.20
2023-09-16T09:26:39.435Z,22.20
2023-09-16T09:29:05.990Z,22.20
2023-09-16T09:31:32.636Z,22.20
2023-09-16T09:33:59.260Z,22.20
2023-09-16T09:36:25.838Z,22.20
2023-09-16T09:38:52.544Z,22.20
2023-09-16T09:41:20.349Z,22.20
2023-09-16T09:43:46.941Z,22.20
2023-09-16T09:46:13.555Z,22.20
2023-09-16T09:48:44.954Z,22.20
2023-09-16T09:51:11.508Z,22.20
2023-09-16T09:53:38.077Z,22.20
2023-09-16T09:56:04.670Z,22.20
2023-09-16T09:58:31.217Z,22.20
2023-09-16T10:00:57.766Z,22.30
2023-09-16T10:03:24.614Z,22.20
2023-09-16T10:05:51.257Z,22.20
2023-09-16T10:08:17.797Z,22.20
2023-09-16T10:10:44.317Z,22.20
2023-09-16T10:13:10.867Z,22.20
2023-09-16T10:15:37.412Z,22.30
2023-09-16T10:18:03.963Z,22.30
2023-09-16T10:20:30.564Z,22.30
2023-09-16T10:22:57.092Z,22.30
2023-09-16T10:25:23.723Z,22.30
2023-09-16T10:27:50.349Z,22.30
2023-09-16T10:30:16.923Z,22.30
2023-09-16T10:32:43.599Z,22.30
2023-09-16T10:35:10.247Z,22.30
2023-09-16T10:37:36.755Z,22.30
2023-09-16T10:40:03.299Z,22.30
2023-09-16T10:42:30.057Z,22.30
2023-09-16T10:44:56.584Z,22.30
2023-09-16T10:47:23.105Z,22.40
2023-09-16T10:49:49.631Z,22.40
2023-09-16T10:52:16.181Z,22.30
2023-09-16T10:54:42.732Z,22.40
2023-09-16T10:57:09.253Z,22.40
2023-09-16T10:59:35.794Z,22.40
2023-09-16T11:02:02.348Z,22.40
2023-09-16T11:04:29.162Z,22.40
2023-09-16T11:06:55.715Z,22.40
2023-09-16T11:09:22.265Z,22.40
2023-09-16T11:11:48.786Z,22.50
2023-09-16T11:14:15.320Z,22.40
2023-09-16T11:16:41.913Z,22.40
2023-09-16T11:19:08.549Z,22.40
2023-09-16T11:21:35.161Z,22.40
2023-09-16T11:24:01.680Z,22.40
2023-09-16T11:26:28.220Z,22.40
2023-09-16T11:28:54.767Z,22.40
2023-09-16T11:31:21.459Z,22.40
2023-09-16T11:33:48.063Z,22.50
2023-09-16T11:36:14.617Z,22.50
2023-09-16T11:38:41.129Z,22.50
2023-09-16T11:49:40.180Z,22.50
2023-09-16T11:52:09.073Z,22.50
2023-09-16T11:54:39.038Z,22.50
2023-09-16T12:05:37.395Z,22.50
2023-09-16T12:08:09.071Z,22.50
2023-09-16T12:10:35.587Z,22.50
2023-09-16T12:27:21.093Z,22.50
2023-09-16T12:46:57.082Z,22.60
2023-09-16T12:49:23.682Z,22.60
2023-09-16T13:00:22.216Z,22.60
2023-09-16T13:02:48.863Z,22.60
2023-09-16T13:05:15.444Z,22.60
2023-09-16T13:07:41.969Z,22.70
2023-09-16T13:10:08.551Z,22.60
2023-09-16T13:12:35.085Z,22.60
2023-09-16T13:15:01.640Z,22.70
2023-09-16T13:17:28.229Z,22.70
2023-09-16T13:19:54.775Z,22.60
2023-09-16T13:22:21.363Z,22.70
2023-09-16T13:24:47.976Z,22.70
2023-09-16T13:27:14.507Z,22.70
2023-09-16T13:29:41.223Z,22.70
2023-09-16T13:32:07.832Z,22.70
2023-09-16T13:34:34.497Z,22.70
2023-09-16T13:37:01.037Z,22.70
2023-09-16T13:39:27.545Z,22.70
2023-09-16T13:47:33.158Z,22.70
2023-09-16T14:12:51.194Z,22.80
2023-09-16T14:15:34.389Z,22.70
2023-09-16T14:23:45.175Z,22.80
2023-09-16T14:31:52.268Z,22.80
2023-09-16T14:42:44.221Z,22.80
2023-09-16T14:59:27.202Z,22.80
2023-09-16T15:04:37.923Z,22.80
2023-09-16T15:07:21.440Z,22.80
2023-09-16T15:24:02.366Z,22.80
2023-09-16T15:26:28.924Z,22.80
2023-09-16T15:28:55.473Z,22.80
2023-09-16T15:31:22.186Z,22.80
2023-09-16T15:33:49.112Z,22.80
2023-09-16T15:36:16.279Z,22.80
2023-09-16T15:38:43.711Z,22.80
2023-09-16T15:41:10.343Z,22.90
2023-09-16T15:43:36.893Z,22.90
2023-09-16T15:46:03.513Z,22.90
2023-09-16T15:48:30.099Z,22.80
2023-09-16T15:50:56.606Z,22.90
2023-09-16T15:53:23.125Z,22.90
2023-09-16T15:55:50.001Z,22.90
2023-09-16T15:58:17.339Z,22.90
2023-09-16T16:00:43.903Z,22.90
2023-09-16T16:03:10.513Z,22.90
2023-09-16T16:05:37.085Z,22.90
2023-09-16T16:08:03.605Z,22.90
2023-09-16T16:10:30.177Z,22.90
2023-09-16T16:12:56.880Z,22.90
2023-09-16T16:15:23.431Z,22.90
2023-09-16T16:17:49.978Z,22.90
2023-09-16T16:20:16.558Z,22.80
2023-09-16T16:22:43.085Z,22.90
2023-09-16T16:25:09.650Z,22.90
2023-09-16T16:27:36.258Z,22.90
2023-09-16T16:30:02.776Z,22.90
2023-09-16T16:32:29.374Z,22.90
2023-09-16T16:34:55.897Z,22.90
2023-09-16T16:37:22.471Z,22.80
2023-09-16T16:39:48.996Z,22.90
2023-09-16T16:42:21.283Z,22.90
2023-09-16T16:56:04.264Z,22.90
2023-09-16T17:09:47.288Z,22.80
2023-09-16T17:17:48.352Z,22.80
2023-09-16T17:34:29.323Z,22.80
2023-09-16T17:39:39.789Z,22.80
2023-09-16T17:56:21.396Z,22.80
2023-09-16T17:58:47.926Z,22.80
2023-09-16T18:01:14.570Z,22.80
2023-09-16T18:03:41.105Z,22.80
2023-09-16T18:06:07.652Z,22.80
2023-09-16T18:08:34.179Z,22.80
2023-09-16T18:11:00.787Z,22.80
2023-09-16T18:13:27.342Z,22.80
2023-09-16T18:15:53.873Z,22.80
2023-09-16T18:18:20.401Z,22.80
2023-09-16T18:20:46.946Z,22.80
2023-09-16T18:23:13.507Z,22.80
2023-09-16T18:25:40.061Z,22.80
2023-09-16T18:28:06.650Z,22.80
2023-09-16T18:30:33.192Z,22.80
2023-09-16T18:32:59.744Z,22.80
2023-09-16T18:35:26.273Z,22.80
2023-09-16T18:37:56.303Z,22.80
2023-09-16T18:40:29.895Z,22.80
2023-09-16T18:42:56.491Z,22.80
2023-09-16T18:45:23.012Z,22.80
2023-09-16T18:47:49.615Z,22.80
2023-09-16T18:50:16.153Z,22.80
2023-09-16T18:52:42.718Z,22.80
2023-09-16T18:55:09.294Z,22.80
2023-09-16T18:57:35.857Z,22.80
2023-09-16T19:00:02.389Z,22.80
2023-09-16T19:02:28.989Z,22.80
2023-09-16T19:04:55.569Z,22.80
2023-09-16T19:07:22.151Z,22.80
2023-09-16T19:09:48.758Z,22.80
2023-09-16T19:12:15.305Z,22.70
2023-09-16T19:14:41.820Z,22.80
2023-09-16T19:17:08.422Z,22.80
2023-09-16T19:19:35.001Z,22.70
2023-09-16T19:22:01.604Z,22.80
2023-09-16T19:24:28.155Z,22.70
2023-09-16T19:26:54.722Z,22.70
2023-09-16T19:29:21.222Z,22.80
2023-09-16T19:31:47.812Z,22.70
2023-09-16T19:34:14.510Z,22.70
2023-09-16T19:36:41.048Z,22.70
2023-09-16T19:39:07.555Z,22.70
2023-09-16T19:41:34.083Z,22.70
2023-09-16T19:44:00.671Z,22.70
2023-09-16T19:46:27.251Z,22.70
2023-09-16T19:48:53.816Z,22.80
2023-09-16T19:51:20.333Z,22.70
2023-09-16T19:53:46.877Z,22.80
2023-09-16T19:56:13.404Z,22.70
2023-09-16T19:58:40.069Z,22.70
2023-09-16T20:01:06.700Z,22.70
2023-09-16T20:03:33.321Z,22.70
2023-09-16T20:05:59.936Z,22.70
2023-09-16T20:08:26.543Z,22.70
2023-09-16T20:10:53.073Z,22.70
2023-09-16T20:13:19.632Z,22.70
2023-09-16T20:15:46.178Z,22.70
2023-09-16T20:18:12.780Z,22.70
2023-09-16T20:20:39.349Z,22.70
2023-09-16T20:23:05.885Z,22.70
2023-09-16T20:25:32.419Z,22.70
2023-09-16T20:27:58.938Z,22.70
2023-09-16T20:30:25.452Z,22.70
2023-09-16T20:32:57.518Z,22.70
2023-09-16T20:35:24.075Z,22.70
2023-09-16T20:37:50.623Z,22.70
2023-09-16T20:40:17.188Z,22.70
2023-09-16T20:42:43.746Z,22.70
2023-09-16T20:45:10.261Z,22.70
2023-09-16T20:47:36.822Z,22.70
2023-09-16T20:50:03.422Z,22.70
2023-09-16T20:52:29.983Z,22.70
2023-09-16T20:54:56.530Z,22.70
2023-09-16T20:57:23.447Z,22.70
2023-09-16T20:59:50.030Z,22.70
2023-09-16T21:02:16.698Z,22.70
2023-09-16T21:04:43.362Z,22.70
2023-09-16T21:07:09.961Z,22.60
2023-09-16T21:09:36.545Z,22.70
2023-09-16T21:12:03.063Z,22.70
2023-09-16T21:14:29.984Z,22.60
2023-09-16T21:16:56.548Z,22.60
2023-09-16T21:19:23.197Z,22.60
2023-09-16T21:21:49.718Z,22.60
2023-09-16T21:24:16.272Z,22.60
2023-09-16T21:26:42.808Z,22.60
2023-09-16T21:29:09.346Z,22.60
2023-09-16T21:31:44.009Z,22.60
2023-09-16T21:34:21.716Z,22.60
2023-09-16T21:36:48.289Z,22.60
2023-09-16T21:39:14.816Z,22.60
2023-09-16T21:41:41.336Z,22.60
2023-09-16T21:44:07.868Z,22.70
2023-09-16T21:46:34.384Z,22.60
2023-09-16T21:49:00.946Z,22.60
2023-09-16T21:51:27.467Z,22.60
2023-09-16T21:53:53.998Z,22.60
2023-09-16T21:56:20.523Z,22.60
2023-09-16T21:58:51.570Z,22.60
2023-09-16T22:01:18.180Z,22.60
2023-09-16T22:03:44.818Z,22.60
2023-09-16T22:06:11.426Z,22.60
2023-09-16T22:08:37.947Z,22.60
2023-09-16T22:11:04.531Z,22.60
2023-09-16T22:13:31.108Z,22.60
2023-09-16T22:15:57.735Z,22.60
2023-09-16T22:18:24.319Z,22.60
2023-09-16T22:20:50.854Z,22.60
2023-09-16T22:23:17.372Z,22.60
2023-09-16T22:25:43.930Z,22.60
2023-09-16T22:48:03.617Z,22.60
2023-09-16T23:21:48.373Z,22.60
2023-09-16T23:32:45.722Z,22.60
2023-09-16T23:38:03.464Z,22.60
2023-09-16T23:43:20.068Z,22.50
